createdAt,value
2022-10-19T00:00:20.818Z,100235.13
2022-10-19T00:02:22.738Z,100215.28
2022-10-19T00:04:24.593Z,100221.59
2022-10-19T00:06:34.251Z,100228.03
2022-10-19T00:08:36.523Z,100228.72
2022-10-19T00:10:40.656Z,100228.78
2022-10-19T00:12:42.769Z,100217.16
2022-10-19T00:14:45.839Z,100216.34
2022-10-19T00:16:50.012Z,100219.03
2022-10-19T00:18:52.024Z,100224.41
2022-10-19T00:21:02.940Z,100225.47
2022-10-19T00:23:04.957Z,100227.16
2022-10-19T00:25:07.531Z,100214.59
2022-10-19T00:27:09.855Z,100210.19
2022-10-19T00:29:13.875Z,100207.41
2022-10-19T00:31:17.988Z,100197.59
2022-10-19T00:33:22.524Z,100195.88
2022-10-19T00:35:24.379Z,100191.53
2022-10-19T00:37:26.843Z,100198.81
2022-10-19T00:39:28.664Z,100190.66
2022-10-19T00:41:33.259Z,100199.34
2022-10-19T00:43:51.924Z,100203.06
2022-10-19T00:45:53.967Z,100191.44
2022-10-19T00:47:56.519Z,100190.25
2022-10-19T00:49:59.330Z,100179.44
2022-10-19T00:52:08.691Z,100168.00
2022-10-19T00:54:11.946Z,100169.81
2022-10-19T00:56:16.053Z,100175.28
2022-10-19T00:58:18.018Z,100170.66
2022-10-19T01:00:19.965Z,100165.34
2022-10-19T01:02:21.853Z,100171.53
2022-10-19T01:04:26.175Z,100169.88
2022-10-19T01:06:28.698Z,100165.44
2022-10-19T01:08:30.643Z,100163.59
2022-10-19T01:11:14.471Z,100160.28
2022-10-19T01:13:26.670Z,100152.94
2022-10-19T01:15:45.092Z,100163.88
2022-10-19T01:17:58.502Z,100169.47
2022-10-19T01:20:34.733Z,100166.81
2022-10-19T01:22:45.320Z,100161.28
2022-10-19T01:25:10.186Z,100166.06
2022-10-19T01:27:37.534Z,100162.59
2022-10-19T01:29:57.260Z,100169.66
2022-10-19T01:32:06.605Z,100166.94
2022-10-19T01:34:33.595Z,100170.72
2022-10-19T01:36:54.595Z,100165.25
2022-10-19T01:39:19.001Z,100169.16
2022-10-19T01:41:20.836Z,100168.13
2022-10-19T01:43:41.668Z,100163.13
2022-10-19T01:46:17.209Z,100156.97
2022-10-19T01:48:25.414Z,100164.16
2022-10-19T01:50:45.469Z,100157.91
2022-10-19T01:52:50.805Z,100152.44
2022-10-19T01:54:56.735Z,100150.56
2022-10-19T01:57:02.547Z,100156.09
2022-10-19T01:59:08.160Z,100148.00
2022-10-19T02:01:13.496Z,100156.91
2022-10-19T02:03:17.433Z,100156.97
2022-10-19T02:05:23.274Z,100159.75
2022-10-19T02:07:26.570Z,100159.75
2022-10-19T02:09:28.631Z,100153.53
2022-10-19T02:11:32.389Z,100153.97
2022-10-19T02:13:36.540Z,100151.50
2022-10-19T02:15:43.830Z,100147.19
2022-10-19T02:17:52.934Z,100147.19
2022-10-19T02:19:55.321Z,100141.56
2022-10-19T02:21:58.040Z,100151.38
2022-10-19T02:23:59.858Z,100148.75
2022-10-19T02:26:04.232Z,100148.94
2022-10-19T02:28:06.299Z,100143.53
2022-10-19T02:30:10.408Z,100151.69
2022-10-19T02:32:12.784Z,100138.31
2022-10-19T02:34:14.812Z,100141.28
2022-10-19T02:36:18.186Z,100136.44
2022-10-19T02:38:23.430Z,100134.22
2022-10-19T02:40:27.056Z,100138.88
2022-10-19T02:42:53.333Z,100122.56
2022-10-19T02:45:06.571Z,100123.28
2022-10-19T02:47:18.962Z,100130.66
2022-10-19T02:49:21.620Z,100116.81
2022-10-19T02:51:31.801Z,100118.81
2022-10-19T02:53:33.855Z,100117.06
2022-10-19T02:55:35.883Z,100118.41
2022-10-19T02:57:37.945Z,100122.59
2022-10-19T02:59:39.970Z,100126.09
2022-10-19T03:01:41.934Z,100125.00
2022-10-19T03:03:43.896Z,100118.56
2022-10-19T03:05:45.811Z,100116.00
2022-10-19T03:07:48.257Z,100117.59
2022-10-19T03:09:50.809Z,100128.47
2022-10-19T03:11:52.876Z,100112.16
2022-10-19T03:13:57.337Z,100118.31
2022-10-19T03:16:07.277Z,100113.00
2022-10-19T03:18:09.317Z,100122.59
2022-10-19T03:20:12.020Z,100118.16
2022-10-19T03:22:17.400Z,100111.91
2022-10-19T03:24:22.822Z,100110.94
2022-10-19T03:26:25.120Z,100101.97
2022-10-19T03:28:28.985Z,100109.28
2022-10-19T03:30:31.212Z,100117.28
2022-10-19T03:32:33.443Z,100109.59
2022-10-19T03:34:35.423Z,100113.03
2022-10-19T03:36:39.639Z,100113.34
2022-10-19T03:38:41.882Z,100116.75
2022-10-19T03:40:44.072Z,100110.09
2022-10-19T03:42:46.110Z,100109.28
2022-10-19T03:44:48.503Z,100112.75
2022-10-19T03:46:50.429Z,100115.41
2022-10-19T03:48:52.603Z,100102.66
2022-10-19T03:51:22.235Z,100095.72
2022-10-19T03:53:24.465Z,100104.53
2022-10-19T03:55:26.374Z,100095.03
2022-10-19T03:57:28.297Z,100097.53
2022-10-19T03:59:30.296Z,100096.72
2022-10-19T04:01:34.095Z,100103.72
2022-10-19T04:05:40.355Z,100096.53
2022-10-19T04:07:42.396Z,100101.25
2022-10-19T04:09:44.487Z,100102.28
2022-10-19T04:11:46.760Z,100101.50
2022-10-19T04:13:53.225Z,100106.00
2022-10-19T04:15:55.692Z,100097.81
2022-10-19T04:17:58.067Z,100096.72
2022-10-19T04:20:00.072Z,100094.09
2022-10-19T04:22:04.141Z,100094.16
2022-10-19T04:24:17.279Z,100084.53
2022-10-19T04:26:20.129Z,100093.41
2022-10-19T04:28:22.225Z,100087.09
2022-10-19T04:30:24.254Z,100088.09
2022-10-19T04:32:26.236Z,100077.31
2022-10-19T04:34:28.707Z,100077.44
2022-10-19T04:36:31.042Z,100079.34
2022-10-19T04:38:33.775Z,100085.66
2022-10-19T04:40:36.913Z,100081.22
2022-10-19T04:42:39.299Z,100082.97
2022-10-19T04:44:41.697Z,100084.75
2022-10-19T04:46:43.910Z,100091.00
2022-10-19T04:48:48.002Z,100083.97
2022-10-19T04:50:50.126Z,100092.06
2022-10-19T04:52:55.585Z,100091.19
2022-10-19T04:54:58.113Z,100084.22
2022-10-19T04:57:00.314Z,100085.94
2022-10-19T04:59:04.263Z,100088.84
2022-10-19T05:01:21.038Z,100091.91
2022-10-19T05:03:23.173Z,100092.63
2022-10-19T05:05:28.319Z,100091.75
2022-10-19T05:07:33.949Z,100083.44
2022-10-19T05:09:36.918Z,100091.84
2022-10-19T05:11:39.025Z,100093.75
2022-10-19T05:13:42.384Z,100090.22
2022-10-19T05:15:44.562Z,100087.53
2022-10-19T05:17:49.499Z,100090.09
2022-10-19T05:19:51.423Z,100098.06
2022-10-19T05:21:53.308Z,100095.38
2022-10-19T05:23:56.531Z,100100.00
2022-10-19T05:26:19.495Z,100100.50
2022-10-19T05:28:21.449Z,100099.47
2022-10-19T05:30:23.474Z,100096.44
2022-10-19T05:32:27.277Z,100097.44
2022-10-19T05:34:29.204Z,100092.78
2022-10-19T05:36:37.070Z,100095.50
2022-10-19T05:38:39.251Z,100092.38
2022-10-19T05:40:50.266Z,100090.44
2022-10-19T05:42:54.675Z,100089.19
2022-10-19T05:44:56.694Z,100091.50
2022-10-19T05:46:58.911Z,100092.28
2022-10-19T05:49:00.779Z,100102.84
2022-10-19T05:51:05.307Z,100098.00
2022-10-19T05:53:07.072Z,100105.00
2022-10-19T05:55:09.628Z,100103.59
2022-10-19T05:57:11.385Z,100093.50
2022-10-19T05:59:19.689Z,100099.53
2022-10-19T06:01:21.588Z,100102.91
2022-10-19T06:03:24.299Z,100108.41
2022-10-19T06:05:26.083Z,100093.06
2022-10-19T06:07:28.097Z,100110.88
2022-10-19T06:09:35.802Z,100114.53
2022-10-19T06:11:40.602Z,100117.97
2022-10-19T06:13:44.071Z,100114.41
2022-10-19T06:15:50.437Z,100119.56
2022-10-19T06:17:52.250Z,100124.88
2022-10-19T06:19:54.033Z,100123.88
2022-10-19T06:21:55.700Z,100126.44
2022-10-19T06:24:03.159Z,100119.25
2022-10-19T06:26:11.093Z,100122.94
2022-10-19T06:28:13.107Z,100109.47
2022-10-19T06:30:14.974Z,100112.03
2022-10-19T06:32:16.876Z,100105.47
2022-10-19T06:34:19.029Z,100102.03
2022-10-19T06:36:23.508Z,100103.66
2022-10-19T06:38:25.325Z,100107.16
2022-10-19T06:40:27.266Z,100097.25
2022-10-19T06:42:29.476Z,100106.16
2022-10-19T06:44:31.268Z,100117.66
2022-10-19T06:46:33.948Z,100112.97
2022-10-19T06:48:35.787Z,100111.44
2022-10-19T06:50:37.676Z,100109.69
2022-10-19T06:52:40.891Z,100106.16
2022-10-19T06:54:42.648Z,100112.84
2022-10-19T06:56:44.593Z,100104.53
2022-10-19T06:58:46.469Z,100101.72
2022-10-19T07:00:57.582Z,100100.91
2022-10-19T07:02:59.628Z,100089.81
2022-10-19T07:05:06.948Z,100089.56
2022-10-19T07:07:09.489Z,100089.63
2022-10-19T07:09:11.370Z,100094.03
2022-10-19T07:11:17.248Z,100092.00
2022-10-19T07:13:19.895Z,100082.84
2022-10-19T07:15:21.609Z,100084.25
2022-10-19T07:17:23.632Z,100097.69
2022-10-19T07:19:26.830Z,100104.84
2022-10-19T07:21:28.995Z,100119.72
2022-10-19T07:23:32.819Z,100125.16
2022-10-19T07:25:36.278Z,100127.69
2022-10-19T07:27:40.140Z,100130.13
2022-10-19T07:29:42.383Z,100115.38
2022-10-19T07:31:44.386Z,100103.28
2022-10-19T07:33:47.704Z,100099.47
2022-10-19T07:35:49.784Z,100109.16
2022-10-19T07:37:51.699Z,100116.94
2022-10-19T07:39:53.485Z,100120.38
2022-10-19T07:41:55.394Z,100120.03
2022-10-19T07:43:58.038Z,100107.38
2022-10-19T07:46:02.358Z,100098.25
2022-10-19T07:48:04.410Z,100107.09
2022-10-19T07:50:06.488Z,100097.59
2022-10-19T07:52:08.393Z,100103.59
2022-10-19T07:54:10.261Z,100104.25
2022-10-19T07:56:29.964Z,100104.06
2022-10-19T07:58:32.357Z,100110.47
2022-10-19T08:00:34.276Z,100101.09
2022-10-19T08:02:54.782Z,100096.34
2022-10-19T08:05:05.083Z,100097.59
2022-10-19T08:07:10.711Z,100097.28
2022-10-19T08:09:27.724Z,100086.13
2022-10-19T08:11:36.218Z,100092.28
2022-10-19T08:13:38.864Z,100097.59
2022-10-19T08:15:40.935Z,100085.72
2022-10-19T08:17:43.295Z,100091.09
2022-10-19T08:19:47.242Z,100085.38
2022-10-19T08:21:49.904Z,100088.84
2022-10-19T08:23:52.294Z,100093.13
2022-10-19T08:25:59.158Z,100093.28
2022-10-19T08:28:01.203Z,100098.47
2022-10-19T08:30:03.658Z,100091.91
2022-10-19T08:32:05.896Z,100096.25
2022-10-19T08:34:08.657Z,100099.75
2022-10-19T08:36:12.620Z,100090.44
2022-10-19T08:38:14.761Z,100094.81
2022-10-19T08:40:25.184Z,100091.22
2022-10-19T08:42:42.375Z,100090.03
2022-10-19T08:45:03.552Z,100088.03
2022-10-19T08:50:53.833Z,100082.38
2022-10-19T08:53:03.894Z,100083.09
2022-10-19T08:55:18.037Z,100090.72
2022-10-19T08:57:46.491Z,100086.28
2022-10-19T09:00:21.342Z,100078.22
2022-10-19T09:02:51.395Z,100093.28
2022-10-19T09:05:00.823Z,100097.53
2022-10-19T09:07:26.465Z,100093.84
2022-10-19T09:09:31.156Z,100095.44
2022-10-19T09:11:38.911Z,100098.03
2022-10-19T09:14:05.821Z,100107.06
2022-10-19T09:16:17.647Z,100108.47
2022-10-19T09:18:20.069Z,100110.78
2022-10-19T09:20:44.846Z,100108.94
2022-10-19T09:22:55.005Z,100117.81
2022-10-19T09:25:07.896Z,100120.53
2022-10-19T09:27:30.356Z,100108.00
2022-10-19T09:29:47.956Z,100107.84
2022-10-19T09:31:55.338Z,100105.06
2022-10-19T09:34:02.469Z,100109.16
2022-10-19T09:36:07.719Z,100118.69
2022-10-19T09:38:15.013Z,100120.97
2022-10-19T09:40:29.753Z,100120.88
2022-10-19T09:42:34.727Z,100114.41
2022-10-19T09:44:37.004Z,100114.50
2022-10-19T09:48:52.549Z,100121.44
2022-10-19T09:50:59.370Z,100120.72
2022-10-19T09:53:05.734Z,100108.03
2022-10-19T09:55:13.572Z,100107.50
2022-10-19T09:57:21.899Z,100101.56
2022-10-19T09:59:29.017Z,100105.16
2022-10-19T10:01:43.523Z,100103.13
2022-10-19T10:03:53.824Z,100108.31
2022-10-19T10:06:10.484Z,100107.25
2022-10-19T10:08:22.852Z,100104.09
2022-10-19T10:10:34.614Z,100102.97
2022-10-19T10:12:37.710Z,100099.91
2022-10-19T10:14:40.951Z,100105.00
2022-10-19T10:16:42.798Z,100092.09
2022-10-19T10:18:50.699Z,100095.25
2022-10-19T10:21:07.238Z,100086.63
2022-10-19T10:23:23.992Z,100090.22
2022-10-19T10:25:30.277Z,100088.91
2022-10-19T10:27:38.227Z,100081.63
2022-10-19T10:29:40.538Z,100082.19
2022-10-19T10:31:43.030Z,100071.13
2022-10-19T10:33:54.551Z,100077.41
2022-10-19T10:36:02.665Z,100079.19
2022-10-19T10:38:21.754Z,100069.53
2022-10-19T10:40:30.850Z,100064.47
2022-10-19T10:42:43.015Z,100073.75
2022-10-19T10:44:50.473Z,100059.50
2022-10-19T10:46:56.168Z,100051.81
2022-10-19T10:49:02.552Z,100042.97
2022-10-19T10:51:19.833Z,100039.00
2022-10-19T10:53:40.898Z,100031.59
2022-10-19T10:55:56.170Z,100034.03
2022-10-19T10:58:50.903Z,100026.75
2022-10-19T11:00:53.891Z,100019.28
2022-10-19T11:03:11.054Z,100023.72
2022-10-19T11:05:33.808Z,100022.19
2022-10-19T11:07:37.014Z,100014.50
2022-10-19T11:09:44.951Z,100014.13
2022-10-19T11:12:49.467Z,100006.56
2022-10-19T11:15:03.200Z,100008.41
2022-10-19T11:17:11.580Z,100004.72
2022-10-19T11:19:19.440Z,100010.75
2022-10-19T11:21:32.095Z,100011.03
2022-10-19T11:24:02.304Z,100001.28
2022-10-19T11:26:49.538Z,99995.34
2022-10-19T11:29:25.349Z,99995.41
2022-10-19T11:31:50.800Z,99989.66
2022-10-19T11:34:03.584Z,99984.88
2022-10-19T11:36:30.153Z,99987.59
2022-10-19T11:39:01.632Z,99984.88
2022-10-19T11:41:27.517Z,99976.44
2022-10-19T11:43:54.705Z,99981.72
2022-10-19T11:46:09.839Z,99971.16
2022-10-19T11:48:35.717Z,99976.19
2022-10-19T11:50:44.081Z,99973.94
2022-10-19T11:53:24.186Z,99976.09
2022-10-19T11:55:29.512Z,99975.81
2022-10-19T11:57:50.785Z,99967.81
2022-10-19T12:00:00.247Z,99971.88
2022-10-19T12:02:50.008Z,99971.00
2022-10-19T12:04:57.745Z,99970.28
2022-10-19T12:07:27.565Z,99965.13
2022-10-19T12:09:48.296Z,99965.91
2022-10-19T12:11:50.061Z,99966.38
2022-10-19T12:13:57.564Z,99974.25
2022-10-19T12:16:00.820Z,99964.84
2022-10-19T12:18:32.272Z,99964.84
2022-10-19T12:20:51.600Z,99966.19
2022-10-19T12:22:53.896Z,99946.84
2022-10-19T12:24:58.724Z,99951.28
2022-10-19T12:27:36.635Z,99960.81
2022-10-19T12:29:43.937Z,99950.59
2022-10-19T12:31:47.050Z,99950.59
2022-10-19T12:34:09.512Z,99958.78
2022-10-19T12:36:28.354Z,99968.72
2022-10-19T12:38:40.976Z,99960.56
2022-10-19T12:41:15.492Z,99965.31
2022-10-19T12:43:28.277Z,99972.50
2022-10-19T12:45:42.235Z,99961.50
2022-10-19T12:48:09.478Z,99958.59
2022-10-19T12:50:11.874Z,99967.03
2022-10-19T12:52:16.503Z,99973.97
2022-10-19T12:54:25.882Z,99971.25
2022-10-19T12:56:28.023Z,99972.59
2022-10-19T12:58:46.604Z,99976.19
2022-10-19T13:01:07.789Z,99971.72
2022-10-19T13:03:25.079Z,99972.13
2022-10-19T13:05:32.106Z,99978.56
2022-10-19T13:07:36.217Z,99977.56
2022-10-19T13:09:47.802Z,99979.66
2022-10-19T13:12:21.698Z,99988.47
2022-10-19T13:14:45.240Z,99981.28
2022-10-19T13:17:01.895Z,99978.56
2022-10-19T13:19:12.887Z,99973.22
2022-10-19T13:21:50.035Z,99973.03
2022-10-19T13:23:52.507Z,99978.03
2022-10-19T13:26:30.508Z,99979.34
2022-10-19T13:28:32.383Z,99982.63
2022-10-19T13:30:42.079Z,99980.97
2022-10-19T13:32:45.584Z,99986.53
2022-10-19T13:34:48.076Z,99979.66
2022-10-19T13:37:02.129Z,99985.97
2022-10-19T13:39:08.466Z,99979.34
2022-10-19T13:41:16.011Z,99978.34
2022-10-19T13:43:24.410Z,99969.41
2022-10-19T13:45:27.313Z,99967.75
2022-10-19T13:47:40.980Z,99967.75
2022-10-19T13:50:01.961Z,99971.00
2022-10-19T13:52:20.823Z,99967.34
2022-10-19T13:54:35.985Z,99954.66
2022-10-19T13:57:09.122Z,99956.66
2022-10-19T13:59:39.154Z,99953.34
2022-10-19T14:02:23.880Z,99953.34
2022-10-19T14:04:33.556Z,99962.19
2022-10-19T14:06:51.028Z,99954.00
2022-10-19T14:09:43.831Z,99953.34
2022-10-19T14:11:48.441Z,99950.41
2022-10-19T14:14:10.819Z,99957.03
2022-10-19T14:16:21.434Z,99960.56
2022-10-19T14:18:31.329Z,99944.19
2022-10-19T14:20:36.278Z,99944.97
2022-10-19T14:22:38.034Z,99949.44
2022-10-19T14:24:39.886Z,99942.34
2022-10-19T14:26:42.193Z,99940.38
2022-10-19T14:29:05.941Z,99939.72
2022-10-19T14:31:11.079Z,99926.94
2022-10-19T14:33:17.979Z,99930.75
2022-10-19T14:35:24.569Z,99933.69
2022-10-19T14:38:28.633Z,99928.56
2022-10-19T14:40:38.109Z,99934.88
2022-10-19T14:42:49.342Z,99922.47
2022-10-19T14:44:51.308Z,99925.75
2022-10-19T14:46:53.190Z,99924.84
2022-10-19T14:49:04.067Z,99934.09
2022-10-19T14:51:36.533Z,99933.56
2022-10-19T14:53:53.939Z,99932.13
2022-10-19T14:56:00.921Z,99935.53
2022-10-19T14:58:13.965Z,99936.81
2022-10-19T15:00:32.403Z,99938.78
2022-10-19T15:02:39.327Z,99938.66
2022-10-19T15:04:42.818Z,99936.06
2022-10-19T15:06:58.722Z,99939.19
2022-10-19T15:09:12.110Z,99933.66
2022-10-19T15:11:37.910Z,99938.63
2022-10-19T15:13:43.280Z,99945.84
2022-10-19T15:15:45.270Z,99946.69
2022-10-19T15:18:06.765Z,99949.25
2022-10-19T15:20:24.942Z,99954.72
2022-10-19T15:22:39.752Z,99951.13
2022-10-19T15:25:07.594Z,99961.22
2022-10-19T15:27:11.331Z,99961.91
2022-10-19T15:29:30.089Z,99955.34
2022-10-19T15:31:32.083Z,99955.78
2022-10-19T15:33:39.381Z,99949.03
2022-10-19T15:35:44.607Z,99950.09
2022-10-19T15:37:49.796Z,99946.59
2022-10-19T15:39:52.852Z,99949.34
2022-10-19T15:41:54.969Z,99946.91
2022-10-19T15:44:00.437Z,99953.34
2022-10-19T15:46:08.640Z,99949.38
2022-10-19T15:48:10.576Z,99954.81
2022-10-19T15:50:32.660Z,99953.44
2022-10-19T15:52:34.880Z,99952.59
2022-10-19T15:54:36.875Z,99962.91
2022-10-19T15:56:40.347Z,99970.47
2022-10-19T15:58:42.305Z,99977.84
2022-10-19T16:00:44.525Z,99972.81
2022-10-19T16:02:46.686Z,99967.66
2022-10-19T16:04:48.550Z,99965.16
2022-10-19T16:06:50.547Z,99972.81
2022-10-19T16:08:54.219Z,99969.50
2022-10-19T16:10:56.134Z,99969.84
2022-10-19T16:12:57.999Z,99979.16
2022-10-19T16:15:00.133Z,99973.03
2022-10-19T16:17:02.193Z,99975.25
2022-10-19T16:19:04.183Z,99981.75
2022-10-19T16:21:06.761Z,99985.66
2022-10-19T16:23:10.222Z,99984.09
2022-10-19T16:25:14.343Z,99984.31
2022-10-19T16:27:16.566Z,99987.09
2022-10-19T16:29:18.654Z,100004.59
2022-10-19T16:31:20.588Z,100004.75
2022-10-19T16:33:23.359Z,100004.16
2022-10-19T16:35:25.460Z,100002.50
2022-10-19T16:37:27.963Z,100006.28
2022-10-19T16:39:29.821Z,100021.13
2022-10-19T16:41:32.049Z,100026.13
2022-10-19T16:43:34.926Z,100020.09
2022-10-19T16:45:36.859Z,100013.09
2022-10-19T16:47:38.749Z,100014.00
2022-10-19T16:49:40.844Z,100010.38
2022-10-19T16:51:43.114Z,100016.59
2022-10-19T16:53:45.033Z,100014.06
2022-10-19T16:55:46.924Z,100018.44
2022-10-19T16:57:49.189Z,100023.78
2022-10-19T17:02:00.888Z,100013.88
2022-10-19T17:04:03.439Z,100022.81
2022-10-19T17:06:07.384Z,100021.06
2022-10-19T17:08:11.837Z,100021.22
2022-10-19T17:10:15.661Z,100026.00
2022-10-19T17:12:17.947Z,100026.78
2022-10-19T17:14:19.871Z,100040.00
2022-10-19T17:16:22.500Z,100033.88
2022-10-19T17:18:24.450Z,100042.91
2022-10-19T17:20:26.576Z,100045.81
2022-10-19T17:22:28.745Z,100048.78
2022-10-19T17:24:31.770Z,100050.72
2022-10-19T17:26:40.435Z,100052.63
2022-10-19T17:28:43.808Z,100047.03
2022-10-19T17:30:49.286Z,100053.44
2022-10-19T17:32:51.526Z,100059.56
2022-10-19T17:34:54.546Z,100065.53
2022-10-19T17:37:58.691Z,100074.56
2022-10-19T17:40:00.808Z,100073.94
2022-10-19T17:42:04.307Z,100079.19
2022-10-19T17:44:06.339Z,100074.38
2022-10-19T17:46:10.687Z,100079.19
2022-10-19T17:48:12.812Z,100090.84
2022-10-19T17:50:14.909Z,100095.34
2022-10-19T17:52:16.830Z,100104.81
2022-10-19T17:54:18.984Z,100103.94
2022-10-19T17:56:21.695Z,100101.91
2022-10-19T17:58:23.947Z,100098.41
2022-10-19T18:00:25.897Z,100088.41
2022-10-19T18:02:28.048Z,100091.50
2022-10-19T18:04:31.085Z,100100.31
2022-10-19T18:06:36.018Z,100101.56
2022-10-19T18:08:40.963Z,100107.00
2022-10-19T18:10:42.965Z,100098.22
2022-10-19T18:12:45.329Z,100101.13
2022-10-19T18:14:47.339Z,100106.50
2022-10-19T18:16:49.483Z,100100.94
2022-10-19T18:18:54.134Z,100101.22
2022-10-19T18:20:56.167Z,100106.63
2022-10-19T18:22:58.072Z,100096.56
2022-10-19T18:25:00.102Z,100116.38
2022-10-19T18:27:04.965Z,100108.91
2022-10-19T18:29:23.058Z,100112.53
2022-10-19T18:31:29.394Z,100117.44
2022-10-19T18:33:48.178Z,100118.41
2022-10-19T18:35:50.212Z,100119.16
2022-10-19T18:37:52.087Z,100123.84
2022-10-19T18:39:54.382Z,100122.84
2022-10-19T18:41:56.295Z,100124.59
2022-10-19T18:44:03.266Z,100122.84
2022-10-19T18:46:05.682Z,100123.72
2022-10-19T18:48:08.263Z,100137.56
2022-10-19T18:50:10.448Z,100129.22
2022-10-19T18:52:12.279Z,100144.56
2022-10-19T18:54:14.509Z,100140.19
2022-10-19T18:56:18.643Z,100137.47
2022-10-19T18:58:20.373Z,100139.41
2022-10-19T19:00:22.280Z,100135.81
2022-10-19T19:02:34.675Z,100130.63
2022-10-19T19:04:38.096Z,100145.44
2022-10-19T19:06:40.238Z,100142.16
2022-10-19T19:10:46.374Z,100151.22
2022-10-19T19:12:51.589Z,100150.59
2022-10-19T19:14:53.502Z,100141.41
2022-10-19T19:16:55.401Z,100144.72
2022-10-19T19:18:57.219Z,100143.75
2022-10-19T19:20:59.178Z,100150.84
2022-10-19T19:23:01.219Z,100155.66
2022-10-19T19:25:04.399Z,100159.66
2022-10-19T19:27:06.584Z,100171.56
2022-10-19T19:29:08.709Z,100169.91
2022-10-19T19:31:11.787Z,100171.75
2022-10-19T19:33:14.733Z,100176.47
2022-10-19T19:35:16.850Z,100179.31
2022-10-19T19:37:18.888Z,100180.28
2022-10-19T19:39:21.227Z,100181.16
2022-10-19T19:41:23.519Z,100166.94
2022-10-19T19:43:25.678Z,100176.44
2022-10-19T19:45:27.475Z,100174.44
2022-10-19T19:47:29.500Z,100181.66
2022-10-19T19:49:31.433Z,100180.69
2022-10-19T19:51:34.093Z,100175.09
2022-10-19T19:53:37.493Z,100167.53
2022-10-19T19:55:39.640Z,100167.44
2022-10-19T19:57:41.795Z,100178.06
2022-10-19T19:59:43.772Z,100174.22
2022-10-19T20:01:46.264Z,100182.59
2022-10-19T20:03:48.939Z,100187.38
2022-10-19T20:05:51.125Z,100187.06
2022-10-19T20:07:53.666Z,100187.25
2022-10-19T20:09:58.003Z,100194.56
2022-10-19T20:12:02.526Z,100196.16
2022-10-19T20:14:05.042Z,100200.81
2022-10-19T20:16:18.723Z,100194.41
2022-10-19T20:18:22.649Z,100203.00
2022-10-19T20:20:25.282Z,100206.59
2022-10-19T20:22:27.205Z,100203.13
2022-10-19T20:24:30.329Z,100209.47
2022-10-19T20:26:34.107Z,100203.13
2022-10-19T20:28:35.961Z,100199.59
2022-10-19T20:30:37.920Z,100195.78
2022-10-19T20:32:39.950Z,100193.38
2022-10-19T20:34:42.806Z,100197.09
2022-10-19T20:36:45.154Z,100203.19
2022-10-19T20:38:55.304Z,100200.78
2022-10-19T20:40:57.475Z,100213.59
2022-10-19T20:42:59.452Z,100212.19
2022-10-19T20:45:01.581Z,100217.91
2022-10-19T20:47:03.863Z,100213.50
2022-10-19T20:49:07.507Z,100221.59
2022-10-19T20:51:18.276Z,100217.19
2022-10-19T20:53:20.464Z,100217.25
2022-10-19T20:55:22.431Z,100217.19
2022-10-19T20:57:27.023Z,100216.31
2022-10-19T20:59:29.182Z,100214.69
2022-10-19T21:01:32.912Z,100224.69
2022-10-19T21:03:35.508Z,100232.88
2022-10-19T21:05:38.729Z,100230.00
2022-10-19T21:07:40.911Z,100222.63
2022-10-19T21:09:42.856Z,100227.16
2022-10-19T21:11:47.479Z,100235.53
2022-10-19T21:13:52.788Z,100229.34
2022-10-19T21:15:55.096Z,100238.44
2022-10-19T21:17:57.046Z,100248.19
2022-10-19T21:19:59.001Z,100245.63
2022-10-19T21:22:02.621Z,100249.59
2022-10-19T21:24:13.986Z,100251.50
2022-10-19T21:26:17.275Z,100248.41
2022-10-19T21:28:19.399Z,100240.50
2022-10-19T21:30:21.927Z,100241.22
2022-10-19T21:32:24.237Z,100245.06
2022-10-19T21:34:29.431Z,100244.97
2022-10-19T21:36:31.641Z,100233.56
2022-10-19T21:38:34.684Z,100235.97
2022-10-19T21:40:39.292Z,100247.75
2022-10-19T21:42:41.385Z,100248.22
2022-10-19T21:44:43.291Z,100247.28
2022-10-19T21:46:47.951Z,100245.50
2022-10-19T21:48:50.569Z,100254.28
2022-10-19T21:50:52.792Z,100248.78
2022-10-19T21:52:55.975Z,100257.00
2022-10-19T21:54:58.431Z,100254.28
2022-10-19T21:57:03.866Z,100255.09
2022-10-19T21:59:06.543Z,100245.28
2022-10-19T22:01:09.135Z,100241.53
2022-10-19T22:03:11.361Z,100253.72
2022-10-19T22:08:48.302Z,100254.88
2022-10-19T22:10:50.979Z,100255.78
2022-10-19T22:12:52.993Z,100258.75
2022-10-19T22:14:55.575Z,100255.91
2022-10-19T22:16:58.066Z,100256.66
2022-10-19T22:19:00.449Z,100259.63
2022-10-19T22:21:05.220Z,100257.34
2022-10-19T22:23:08.518Z,100254.13
2022-10-19T22:25:10.617Z,100257.78
2022-10-19T22:27:12.916Z,100265.91
2022-10-19T22:29:15.191Z,100263.13
2022-10-19T22:31:17.270Z,100272.06
2022-10-19T22:33:19.465Z,100278.50
2022-10-19T22:35:22.148Z,100269.72
2022-10-19T22:37:24.446Z,100272.94
2022-10-19T22:39:28.033Z,100274.63
2022-10-19T22:41:30.147Z,100265.31
2022-10-19T22:43:32.316Z,100269.88
2022-10-19T22:45:34.174Z,100275.34
2022-10-19T22:47:37.119Z,100277.75
2022-10-19T22:49:39.168Z,100273.81
2022-10-19T22:51:41.215Z,100278.25
2022-10-19T22:53:43.502Z,100280.91
2022-10-19T22:55:45.623Z,100271.72
2022-10-19T22:57:49.918Z,100274.41
2022-10-19T22:59:51.979Z,100271.50
2022-10-19T23:01:54.222Z,100275.03
2022-10-19T23:03:56.778Z,100282.13
2022-10-19T23:05:58.990Z,100282.94
2022-10-19T23:08:03.546Z,100279.63
2022-10-19T23:10:06.639Z,100275.25
2022-10-19T23:12:08.816Z,100288.09
2022-10-19T23:14:10.733Z,100287.09
2022-10-19T23:16:12.833Z,100281.75
2022-10-19T23:18:15.562Z,100286.16
2022-10-19T23:20:17.783Z,100281.81
2022-10-19T23:22:20.170Z,100283.66
2022-10-19T23:24:22.414Z,100282.69
2022-10-19T23:26:25.236Z,100279.09
2022-10-19T23:28:28.073Z,100288.09
2022-10-19T23:30:30.189Z,100297.78
2022-10-19T23:32:32.303Z,100299.75
2022-10-19T23:36:37.261Z,100297.38
2022-10-19T23:38:39.289Z,100300.97
2022-10-19T23:40:45.365Z,100298.13
2022-10-19T23:42:47.285Z,100287.44
2022-10-19T23:44:49.282Z,100288.31
2022-10-19T23:46:51.347Z,100289.06
2022-10-19T23:48:53.628Z,100286.72
2022-10-19T23:51:07.684Z,100285.00
2022-10-19T23:53:09.966Z,100284.16
2022-10-19T23:55:11.962Z,100293.34
2022-10-19T23:57:13.989Z,100294.22
2022-10-19T23:59:16.306Z,100295.03
